createdAt,value
2019-03-09T00:08:21.064Z,63.10
2019-03-09T00:10:52.310Z,75.60
2019-03-09T00:13:22.733Z,74.80
2019-03-09T00:15:52.931Z,74.40
2019-03-09T00:18:23.348Z,74.50
2019-03-09T00:20:53.746Z,74.60
2019-03-09T00:23:37.635Z,74.90
2019-03-09T00:26:18.617Z,75.30
2019-03-09T00:28:53.245Z,75.60
2019-03-09T00:31:30.579Z,76.10
2019-03-09T00:34:01.934Z,76.50
2019-03-09T00:36:32.278Z,76.70
2019-03-09T00:39:02.804Z,77.00
2019-03-09T00:41:34.877Z,77.20
2019-03-09T00:44:05.523Z,77.40
2019-03-09T00:46:35.847Z,77.80
2019-03-09T00:49:06.274Z,78.00
2019-03-09T00:51:36.459Z,78.00
2019-03-09T00:54:06.744Z,78.00
2019-03-09T00:56:37.002Z,78.00
2019-03-09T00:59:07.302Z,78.20
2019-03-09T01:01:37.539Z,78.20
2019-03-09T01:04:07.809Z,78.30
2019-03-09T01:06:38.063Z,78.40
2019-03-09T01:09:09.234Z,78.30
2019-03-09T01:11:39.488Z,77.90
2019-03-09T01:14:09.845Z,76.50
2019-03-09T01:16:40.100Z,75.90
2019-03-09T01:19:10.356Z,76.00
2019-03-09T01:21:40.598Z,76.00
2019-03-09T01:24:10.856Z,76.10
2019-03-09T01:26:41.095Z,76.20
2019-03-09T01:29:11.415Z,76.10
2019-03-09T01:31:41.652Z,76.10
2019-03-09T01:34:12.016Z,76.10
2019-03-09T01:36:42.297Z,76.30
2019-03-09T01:39:12.553Z,76.50
2019-03-09T01:41:42.830Z,76.50
2019-03-09T01:44:13.069Z,76.90
2019-03-09T01:46:43.328Z,77.80
2019-03-09T01:49:13.627Z,78.30
2019-03-09T01:51:44.762Z,78.90
2019-03-09T01:54:15.020Z,79.00
2019-03-09T01:56:45.268Z,79.30
2019-03-09T01:59:15.529Z,79.70
2019-03-09T02:01:45.817Z,80.00
2019-03-09T02:04:16.078Z,80.20
2019-03-09T02:06:47.458Z,80.70
2019-03-09T02:09:17.783Z,81.50
2019-03-09T02:11:48.048Z,82.30
2019-03-09T02:14:18.288Z,82.50
2019-03-09T02:16:49.554Z,81.90
2019-03-09T02:19:19.832Z,81.70
2019-03-09T02:21:50.067Z,81.70
2019-03-09T02:24:20.333Z,82.40
2019-03-09T02:26:50.580Z,82.50
2019-03-09T02:29:20.865Z,82.10
2019-03-09T02:31:51.106Z,82.00
2019-03-09T02:34:21.372Z,81.90
2019-03-09T02:36:51.712Z,82.30
2019-03-09T02:39:23.582Z,82.00
2019-03-09T02:41:53.807Z,81.70
2019-03-09T02:44:24.079Z,81.00
2019-03-09T02:46:55.219Z,80.70
2019-03-09T02:49:25.487Z,80.80
2019-03-09T02:51:55.720Z,80.90
2019-03-09T02:54:25.985Z,81.00
2019-03-09T02:56:56.236Z,80.50
2019-03-09T02:59:26.500Z,80.50
2019-03-09T03:01:58.469Z,80.20
2019-03-09T03:04:28.773Z,80.20
2019-03-09T03:06:59.201Z,80.50
2019-03-09T03:09:29.430Z,80.90
2019-03-09T03:11:59.702Z,80.50
2019-03-09T03:14:29.984Z,80.60
2019-03-09T03:17:01.331Z,80.60
2019-03-09T03:19:31.555Z,80.80
2019-03-09T03:22:01.821Z,80.70
2019-03-09T03:24:32.068Z,80.70
2019-03-09T03:27:02.370Z,80.80
2019-03-09T03:29:32.613Z,80.90
2019-03-09T03:32:02.913Z,80.70
2019-03-09T03:34:33.154Z,80.70
2019-03-09T03:37:03.417Z,80.60
2019-03-09T03:39:33.715Z,80.70
2019-03-09T03:42:03.997Z,80.60
2019-03-09T03:44:35.825Z,80.70
2019-03-09T03:47:06.128Z,80.70
2019-03-09T03:49:36.357Z,80.60
2019-03-09T03:52:06.768Z,80.60
2019-03-09T03:54:37.006Z,80.90
2019-03-09T03:57:07.286Z,80.70
2019-03-09T03:59:37.523Z,80.70
2019-03-09T04:02:07.803Z,81.10
2019-03-09T04:04:38.179Z,81.00
2019-03-09T04:07:08.476Z,81.00
2019-03-09T04:09:38.799Z,81.10
2019-03-09T04:12:09.101Z,81.20
2019-03-09T04:14:39.361Z,81.60
2019-03-09T04:17:09.632Z,81.80
2019-03-09T04:19:39.968Z,82.40
2019-03-09T04:22:10.705Z,82.50
2019-03-09T04:24:40.975Z,82.70
2019-03-09T04:27:11.231Z,83.00
2019-03-09T04:29:41.488Z,83.20
2019-03-09T04:32:11.739Z,83.40
2019-03-09T04:34:42.024Z,83.50
2019-03-09T04:37:12.261Z,83.80
2019-03-09T04:39:42.499Z,84.30
2019-03-09T04:42:12.795Z,85.10
2019-03-09T04:44:42.970Z,85.40
2019-03-09T04:47:13.240Z,85.70
2019-03-09T04:49:43.559Z,86.00
2019-03-09T04:52:13.815Z,87.10
2019-03-09T04:54:44.095Z,87.60
2019-03-09T04:57:14.325Z,88.30
2019-03-09T04:59:44.616Z,88.60
2019-03-09T05:02:15.839Z,89.40
2019-03-09T05:04:47.013Z,89.40
2019-03-09T05:07:20.656Z,89.30
2019-03-09T05:09:53.870Z,89.30
2019-03-09T05:12:24.116Z,89.70
2019-03-09T05:14:54.412Z,89.20
2019-03-09T05:17:24.647Z,89.40
2019-03-09T05:19:54.936Z,89.10
2019-03-09T05:22:25.198Z,89.10
2019-03-09T05:24:55.471Z,89.00
2019-03-09T05:27:25.796Z,88.90
2019-03-09T05:29:56.086Z,89.10
2019-03-09T05:32:26.329Z,89.40
2019-03-09T05:34:57.591Z,89.10
2019-03-09T05:37:27.841Z,89.60
2019-03-09T05:39:58.241Z,89.90
2019-03-09T05:42:28.512Z,90.00
2019-03-09T05:44:58.748Z,90.10
2019-03-09T05:47:29.039Z,90.50
2019-03-09T05:49:59.267Z,90.40
2019-03-09T05:52:29.628Z,90.60
2019-03-09T05:54:59.873Z,90.50
2019-03-09T05:57:31.250Z,90.90
2019-03-09T06:00:01.497Z,90.90
2019-03-09T06:02:31.866Z,91.00
2019-03-09T06:05:02.096Z,90.80
2019-03-09T06:07:32.441Z,90.80
2019-03-09T06:10:02.688Z,90.90
2019-03-09T06:12:32.935Z,90.80
2019-03-09T06:15:03.240Z,91.50
2019-03-09T06:17:33.479Z,91.70
2019-03-09T06:20:04.752Z,91.60
2019-03-09T06:22:34.984Z,92.00
2019-03-09T06:25:06.510Z,91.90
2019-03-09T06:27:36.833Z,91.70
2019-03-09T06:30:08.912Z,92.10
2019-03-09T06:32:42.095Z,92.10
2019-03-09T06:35:23.723Z,92.00
2019-03-09T06:38:19.760Z,92.40
2019-03-09T06:40:50.043Z,92.20
2019-03-09T06:43:20.276Z,92.60
2019-03-09T06:45:50.554Z,92.80
2019-03-09T06:48:20.860Z,92.80
2019-03-09T06:50:51.140Z,92.70
2019-03-09T06:53:21.406Z,92.90
2019-03-09T06:55:51.640Z,92.90
2019-03-09T06:58:21.876Z,93.10
2019-03-09T07:00:52.583Z,93.30
2019-03-09T07:03:22.946Z,93.50
2019-03-09T07:05:53.435Z,93.20
2019-03-09T07:08:23.858Z,93.30
2019-03-09T07:10:54.493Z,93.30
2019-03-09T07:13:24.883Z,93.80
2019-03-09T07:15:55.340Z,94.60
2019-03-09T07:18:25.735Z,94.30
2019-03-09T07:20:57.178Z,94.20
2019-03-09T07:23:27.822Z,94.00
2019-03-09T07:25:58.168Z,94.20
2019-03-09T07:28:28.804Z,94.10
2019-03-09T07:30:59.328Z,93.90
2019-03-09T07:33:30.879Z,93.90
2019-03-09T07:36:01.511Z,93.80
2019-03-09T07:38:32.142Z,93.80
2019-03-09T07:41:02.371Z,94.10
2019-03-09T07:43:32.792Z,94.00
2019-03-09T07:46:03.537Z,94.00
2019-03-09T07:48:34.049Z,94.10
2019-03-09T07:51:04.377Z,94.20
2019-03-09T07:53:35.003Z,93.90
2019-03-09T07:56:05.754Z,94.20
2019-03-09T07:58:36.265Z,94.00
2019-03-09T08:01:06.892Z,94.10
2019-03-09T08:03:37.421Z,94.20
2019-03-09T08:06:08.052Z,94.10
2019-03-09T08:08:38.484Z,94.10
2019-03-09T08:11:09.107Z,94.20
2019-03-09T08:13:39.738Z,94.40
2019-03-09T08:16:10.470Z,94.80
2019-03-09T08:18:40.895Z,94.90
2019-03-09T08:21:11.637Z,94.80
2019-03-09T08:23:42.054Z,94.60
2019-03-09T08:26:12.689Z,94.70
2019-03-09T08:28:43.212Z,94.30
2019-03-09T08:31:14.969Z,94.30
2019-03-09T08:33:45.619Z,94.50
2019-03-09T08:36:16.027Z,94.70
2019-03-09T08:38:46.677Z,94.30
2019-03-09T08:41:17.090Z,94.10
2019-03-09T08:43:47.514Z,94.00
2019-03-09T08:46:18.138Z,94.20
2019-03-09T08:48:48.745Z,94.10
2019-03-09T08:51:19.100Z,94.00
2019-03-09T08:53:49.619Z,94.00
2019-03-09T08:56:20.047Z,93.80
2019-03-09T08:58:50.683Z,93.40
2019-03-09T09:01:22.392Z,93.60
2019-03-09T09:03:53.165Z,93.10
2019-03-09T09:06:24.923Z,92.70
2019-03-09T09:08:55.456Z,92.80
2019-03-09T09:11:25.876Z,92.00
2019-03-09T09:13:56.300Z,91.20
2019-03-09T09:16:26.829Z,90.60
2019-03-09T09:18:58.689Z,90.50
2019-03-09T09:21:29.320Z,88.80
2019-03-09T09:23:59.953Z,88.30
2019-03-09T09:26:30.489Z,86.30
2019-03-09T09:29:01.416Z,85.10
2019-03-09T09:31:32.353Z,82.00
2019-03-09T09:34:02.982Z,81.70
2019-03-09T09:36:33.821Z,81.10
2019-03-09T09:39:05.782Z,80.10
2019-03-09T09:41:37.843Z,80.30
2019-03-09T09:44:08.475Z,79.00
2019-03-09T09:46:40.744Z,80.20
2019-03-09T09:49:11.270Z,79.20
2019-03-09T09:51:41.903Z,78.80
2019-03-09T09:54:12.531Z,77.20
2019-03-09T09:56:43.162Z,76.10
2019-03-09T09:59:14.529Z,75.30
2019-03-09T10:01:45.342Z,73.40
2019-03-09T10:04:15.976Z,73.10
2019-03-09T10:06:46.713Z,70.30
2019-03-09T10:09:17.489Z,69.60
2019-03-09T10:11:50.118Z,70.70
2019-03-09T10:14:20.853Z,70.70
2019-03-09T10:16:51.516Z,71.10
2019-03-09T10:19:22.223Z,70.00
2019-03-09T10:21:53.461Z,72.70
2019-03-09T10:24:26.039Z,77.10
2019-03-09T10:26:56.666Z,79.90
2019-03-09T10:29:27.502Z,84.20
2019-03-09T10:31:58.130Z,85.90
2019-03-09T10:34:30.401Z,87.50
2019-03-09T10:37:02.362Z,88.10
2019-03-09T10:39:33.713Z,81.10
2019-03-09T10:42:05.773Z,79.60
2019-03-09T10:44:36.511Z,79.10
2019-03-09T10:47:07.136Z,78.80
2019-03-09T10:49:37.767Z,80.90
2019-03-09T10:52:08.296Z,82.50
2019-03-09T10:54:38.924Z,82.00
2019-03-09T10:57:11.505Z,80.50
2019-03-09T10:59:42.068Z,81.40
2019-03-09T11:02:14.401Z,80.30
2019-03-09T11:04:48.143Z,79.10
2019-03-09T11:07:18.835Z,76.80
2019-03-09T11:09:51.208Z,73.10
2019-03-09T11:12:21.890Z,68.10
2019-03-09T11:14:52.674Z,62.90
2019-03-09T11:17:24.942Z,61.30
2019-03-09T11:19:58.030Z,61.00
2019-03-09T11:22:29.992Z,62.20
2019-03-09T11:25:03.622Z,61.20
2019-03-09T11:27:33.916Z,61.40
2019-03-09T11:30:06.331Z,58.80
2019-03-09T11:32:37.429Z,59.60
2019-03-09T11:35:08.264Z,57.90
2019-03-09T11:37:39.102Z,57.00
2019-03-09T11:40:09.730Z,55.40
2019-03-09T11:42:40.257Z,55.90
2019-03-09T11:45:18.184Z,54.80
2019-03-09T11:47:48.792Z,55.70
2019-03-09T11:50:19.630Z,54.70
2019-03-09T11:52:50.255Z,56.40
2019-03-09T11:55:21.294Z,57.10
2019-03-09T11:57:54.941Z,58.30
2019-03-09T12:00:27.347Z,58.50
2019-03-09T12:03:00.564Z,59.10
2019-03-09T12:05:32.419Z,60.00
2019-03-09T12:08:05.609Z,60.80
2019-03-09T12:10:36.574Z,60.90
2019-03-09T12:13:07.926Z,61.80
2019-03-09T12:15:39.038Z,59.70
2019-03-09T12:18:09.870Z,60.60
2019-03-09T12:20:40.706Z,61.40
2019-03-09T12:23:22.321Z,61.00
2019-03-09T12:25:54.751Z,60.60
2019-03-09T12:28:25.815Z,60.30
2019-03-09T12:30:56.441Z,60.50
2019-03-09T12:33:27.799Z,61.70
2019-03-09T12:35:59.747Z,62.40
2019-03-09T12:38:31.196Z,61.50
2019-03-09T12:41:02.440Z,60.50
2019-03-09T12:43:33.070Z,59.70
2019-03-09T12:46:05.956Z,59.30
2019-03-09T12:48:38.837Z,59.40
2019-03-09T12:51:10.390Z,60.00
2019-03-09T12:53:41.634Z,61.00
2019-03-09T12:56:12.570Z,62.20
2019-03-09T12:58:43.208Z,62.10
2019-03-09T13:01:15.364Z,61.40
2019-03-09T13:03:47.432Z,61.10
2019-03-09T13:06:18.200Z,60.70
2019-03-09T13:08:48.952Z,60.50
2019-03-09T13:11:19.630Z,60.60
2019-03-09T13:13:52.011Z,60.40
2019-03-09T13:16:23.043Z,58.80
2019-03-09T13:18:53.775Z,57.70
2019-03-09T13:21:25.739Z,57.60
2019-03-09T13:23:57.598Z,58.10
2019-03-09T13:26:28.432Z,57.60
2019-03-09T13:29:01.592Z,57.00
2019-03-09T13:31:32.363Z,57.90
2019-03-09T13:34:03.091Z,57.00
2019-03-09T13:36:35.003Z,57.30
2019-03-09T13:39:07.976Z,57.30
2019-03-09T13:41:38.771Z,57.70
2019-03-09T13:44:09.504Z,57.40
2019-03-09T13:46:40.336Z,57.60
2019-03-09T13:49:12.313Z,58.10
2019-03-09T13:51:44.981Z,58.20
2019-03-09T13:54:15.405Z,58.40
2019-03-09T13:56:46.245Z,58.50
2019-03-09T13:59:18.409Z,58.20
2019-03-09T14:01:49.240Z,57.80
2019-03-09T14:04:19.973Z,57.70
2019-03-09T14:06:52.161Z,57.20
2019-03-09T14:09:23.797Z,57.90
2019-03-09T14:11:54.936Z,58.10
2019-03-09T14:14:25.567Z,58.10
2019-03-09T14:16:56.502Z,58.60
2019-03-09T14:19:27.548Z,58.00
2019-03-09T14:21:58.388Z,58.40
2019-03-09T14:24:33.624Z,58.20
2019-03-09T14:27:04.770Z,58.10
2019-03-09T14:29:36.008Z,58.30
2019-03-09T14:32:06.863Z,59.10
2019-03-09T14:34:37.574Z,58.90
2019-03-09T14:37:08.509Z,59.10
2019-03-09T14:39:40.880Z,60.50
2019-03-09T14:42:11.819Z,59.30
2019-03-09T14:44:43.678Z,59.20
2019-03-09T14:47:15.646Z,59.80
2019-03-09T14:49:47.909Z,59.90
2019-03-09T14:52:20.076Z,60.20
2019-03-09T14:54:52.148Z,61.10
2019-03-09T14:57:23.081Z,62.00
2019-03-09T14:59:53.914Z,63.20
2019-03-09T15:02:25.873Z,63.80
2019-03-09T15:04:56.610Z,66.20
2019-03-09T15:09:38.209Z,63.50
2019-03-09T15:12:09.246Z,63.50
2019-03-09T15:14:40.799Z,62.70
2019-03-09T15:17:11.584Z,62.60
2019-03-09T15:19:48.309Z,63.40
2019-03-09T15:22:25.899Z,63.00
2019-03-09T15:24:56.633Z,62.30
2019-03-09T15:27:27.292Z,62.30
2019-03-09T15:30:00.039Z,62.20
2019-03-09T15:32:30.822Z,62.20
2019-03-09T15:35:01.550Z,62.50
2019-03-09T15:37:32.444Z,62.40
2019-03-09T15:40:03.179Z,63.20
2019-03-09T15:42:34.430Z,62.40
2019-03-09T15:45:13.304Z,62.20
2019-03-09T15:47:44.215Z,61.80
2019-03-09T15:50:18.091Z,61.90
2019-03-09T15:52:48.783Z,62.10
2019-03-09T15:55:19.555Z,62.30
2019-03-09T15:57:50.596Z,61.50
2019-03-09T16:00:25.190Z,61.10
2019-03-09T16:02:58.516Z,61.90
2019-03-09T16:05:29.356Z,62.70
2019-03-09T16:08:01.516Z,63.40
2019-03-09T16:10:33.784Z,63.80
2019-03-09T16:13:04.425Z,64.50
2019-03-09T16:15:35.046Z,65.10
2019-03-09T16:18:05.779Z,65.30
2019-03-09T16:20:36.679Z,65.80
2019-03-09T16:23:07.346Z,66.20
2019-03-09T16:25:37.975Z,66.60
2019-03-09T16:28:11.145Z,67.00
2019-03-09T16:30:41.900Z,67.90
2019-03-09T16:33:13.289Z,69.00
2019-03-09T16:35:44.045Z,71.00
2019-03-09T16:38:14.711Z,72.10
2019-03-09T16:40:46.982Z,73.90
2019-03-09T16:43:17.718Z,74.20
2019-03-09T16:45:48.344Z,74.70
2019-03-09T16:48:21.026Z,75.50
2019-03-09T16:50:52.062Z,76.90
2019-03-09T16:53:26.099Z,78.30
2019-03-09T16:55:58.342Z,80.70
2019-03-09T16:58:30.100Z,81.90
2019-03-09T17:01:02.161Z,81.70
2019-03-09T17:03:32.999Z,82.40
2019-03-09T17:06:03.693Z,82.80
2019-03-09T17:08:34.513Z,83.50
2019-03-09T17:11:08.576Z,84.20
2019-03-09T17:13:40.752Z,84.80
2019-03-09T17:16:11.477Z,85.50
2019-03-09T17:18:43.678Z,86.50
2019-03-09T17:21:16.799Z,88.00
2019-03-09T17:23:47.408Z,88.40
2019-03-09T17:26:20.280Z,88.00
2019-03-09T17:28:51.183Z,89.20
2019-03-09T17:31:21.919Z,90.20
2019-03-09T17:33:52.645Z,90.20
2019-03-09T17:44:15.956Z,79.60
2019-03-09T17:46:48.176Z,43.60
2019-03-09T17:49:22.083Z,50.80
2019-03-09T17:51:52.970Z,58.50
2019-03-09T17:54:25.031Z,67.10
2019-03-09T17:56:57.297Z,73.10
2019-03-09T17:59:30.013Z,77.60
2019-03-09T18:02:03.829Z,81.60
2019-03-09T18:04:34.821Z,84.50
2019-03-09T18:07:05.522Z,86.70
2019-03-09T18:09:38.612Z,88.60
2019-03-09T18:12:13.658Z,90.00
2019-03-09T18:14:44.512Z,90.40
2019-03-09T18:17:16.832Z,91.20
2019-03-09T18:19:47.616Z,91.80
2019-03-09T18:22:18.451Z,93.10
2019-03-09T18:24:49.286Z,92.90
2019-03-09T18:27:21.370Z,92.80
2019-03-09T18:29:52.084Z,92.60
2019-03-09T18:32:22.817Z,92.70
2019-03-09T18:34:54.166Z,92.50
2019-03-09T18:37:25.204Z,92.60
2019-03-09T18:39:56.962Z,92.50
2019-03-09T18:42:28.823Z,92.50
2019-03-09T18:45:01.605Z,92.30
2019-03-09T18:47:36.736Z,92.50
2019-03-09T18:50:08.069Z,92.30
2019-03-09T18:52:38.821Z,92.60
2019-03-09T18:55:10.938Z,92.70
2019-03-09T18:57:41.925Z,92.80
2019-03-09T19:00:19.022Z,92.80
2019-03-09T19:02:52.400Z,93.00
2019-03-09T19:05:23.746Z,92.80
2019-03-09T19:07:54.685Z,93.00
2019-03-09T19:10:26.956Z,92.80
2019-03-09T19:13:00.694Z,92.70
2019-03-09T19:15:32.731Z,93.10
2019-03-09T19:18:05.553Z,93.20
2019-03-09T19:20:39.423Z,93.30
2019-03-09T19:23:10.917Z,93.10
2019-03-09T19:25:43.950Z,93.50
2019-03-09T19:28:14.890Z,93.50
2019-03-09T19:30:46.945Z,94.30
2019-03-09T19:33:17.833Z,93.60
2019-03-09T19:35:50.459Z,93.30
2019-03-09T19:38:24.929Z,93.60
2019-03-09T19:40:55.904Z,94.00
2019-03-09T19:43:26.667Z,94.20
2019-03-09T19:46:02.322Z,94.50
2019-03-09T19:48:34.464Z,94.50
2019-03-09T19:51:06.835Z,94.50
2019-03-09T19:53:39.515Z,94.60
2019-03-09T19:56:11.756Z,95.00
2019-03-09T19:58:46.525Z,94.90
2019-03-09T20:01:22.227Z,95.00
2019-03-09T20:03:57.294Z,95.00
2019-03-09T20:06:33.125Z,95.00
2019-03-09T20:09:07.464Z,95.00
2019-03-09T20:11:42.824Z,94.90
2019-03-09T20:14:15.175Z,94.90
2019-03-09T20:16:47.413Z,94.80
2019-03-09T20:19:18.175Z,94.60
2019-03-09T20:21:51.368Z,94.70
2019-03-09T20:24:22.250Z,94.50
2019-03-09T20:26:54.374Z,94.60
2019-03-09T20:29:27.750Z,94.70
2019-03-09T20:32:00.138Z,94.60
2019-03-09T20:34:32.097Z,95.00
2019-03-09T20:37:04.469Z,94.50
2019-03-09T20:39:35.275Z,94.30
2019-03-09T20:42:08.944Z,94.40
2019-03-09T20:44:39.227Z,94.50
2019-03-09T20:47:10.268Z,94.20
2019-03-09T20:49:41.716Z,94.40
2019-03-09T20:52:13.618Z,94.60
2019-03-09T20:54:44.460Z,94.70
2019-03-09T20:57:18.593Z,94.50
2019-03-09T20:59:51.919Z,94.20
2019-03-09T21:02:22.656Z,93.70
2019-03-09T21:04:54.660Z,93.60
2019-03-09T21:07:25.553Z,93.20
2019-03-09T21:09:56.489Z,92.70
2019-03-09T21:12:31.010Z,92.00
2019-03-09T21:15:01.884Z,91.20
2019-03-09T21:17:33.816Z,90.90
2019-03-09T21:20:05.717Z,91.50
2019-03-09T21:22:36.911Z,90.70
2019-03-09T21:25:07.850Z,89.00
2019-03-09T21:27:40.526Z,85.50
2019-03-09T21:30:11.528Z,86.20
2019-03-09T21:32:42.613Z,86.40
2019-03-09T21:35:13.280Z,86.60
2019-03-09T21:37:44.191Z,85.70
2019-03-09T21:40:14.874Z,85.40
2019-03-09T21:42:45.582Z,84.60
2019-03-09T21:45:17.647Z,84.10
2019-03-09T21:47:48.643Z,84.50
2019-03-09T21:50:19.478Z,85.10
2019-03-09T21:52:50.110Z,85.20
2019-03-09T21:55:21.148Z,85.70
2019-03-09T21:57:54.646Z,85.00
2019-03-09T22:00:25.483Z,84.20
2019-03-09T22:02:56.215Z,83.20
2019-03-09T22:05:30.524Z,83.80
2019-03-09T22:08:03.150Z,84.30
2019-03-09T22:10:34.803Z,84.60
2019-03-09T22:13:05.622Z,84.20
2019-03-09T22:15:36.210Z,82.90
2019-03-09T22:18:06.959Z,81.90
2019-03-09T22:20:38.204Z,81.40
2019-03-09T22:23:09.041Z,81.50
2019-03-09T22:25:39.772Z,81.80
2019-03-09T22:28:11.119Z,82.20
2019-03-09T22:30:42.622Z,82.20
2019-03-09T22:33:14.531Z,82.20
2019-03-09T22:35:45.365Z,82.10
2019-03-09T22:38:19.481Z,82.10
2019-03-09T22:40:50.222Z,81.50
2019-03-09T22:43:20.944Z,81.70
2019-03-09T22:45:51.676Z,81.10
2019-03-09T22:48:22.511Z,82.00
2019-03-09T22:50:53.073Z,82.80
2019-03-09T22:53:23.773Z,83.30
2019-03-09T22:55:55.017Z,84.20
2019-03-09T22:58:26.876Z,85.90
2019-03-09T23:00:57.618Z,85.70
2019-03-09T23:03:33.414Z,85.90
2019-03-09T23:06:06.693Z,86.30
2019-03-09T23:08:38.549Z,86.40
2019-03-09T23:11:09.388Z,85.80
2019-03-09T23:13:42.891Z,85.40
2019-03-09T23:16:13.682Z,86.10
2019-03-09T23:18:46.152Z,86.70
2019-03-09T23:21:16.784Z,88.60
2019-03-09T23:23:48.438Z,89.50
2019-03-09T23:26:19.996Z,88.80
2019-03-09T23:28:50.723Z,89.20
2019-03-09T23:31:21.462Z,90.10
2019-03-09T23:33:52.190Z,90.20
2019-03-09T23:36:22.837Z,90.50
2019-03-09T23:38:54.063Z,90.90
2019-03-09T23:41:24.694Z,90.90
2019-03-09T23:43:55.223Z,90.70
2019-03-09T23:46:25.956Z,90.60
2019-03-09T23:48:56.853Z,89.90
2019-03-09T23:51:27.455Z,89.40
2019-03-09T23:53:59.390Z,88.80
2019-03-09T23:56:30.117Z,87.50
2019-03-09T23:59:00.747Z,87.50
